createdAt,value
2019-05-23T00:02:22.401Z,8.90
2019-05-23T00:07:29.416Z,8.90
2019-05-23T00:12:43.427Z,8.90
2019-05-23T00:17:48.716Z,8.90
2019-05-23T00:22:54.425Z,8.90
2019-05-23T00:45:41.735Z,8.70
2019-05-23T00:50:46.399Z,8.60
2019-05-23T00:55:51.259Z,8.50
2019-05-23T01:58:24.003Z,7.80
2019-05-23T02:03:28.656Z,7.80
2019-05-23T02:08:35.303Z,7.80
2019-05-23T02:13:40.122Z,7.70
2019-05-23T02:18:46.348Z,7.70
2019-05-23T02:23:50.682Z,7.70
2019-05-23T02:28:55.305Z,7.60
2019-05-23T02:34:00.094Z,7.60
2019-05-23T02:39:11.407Z,7.60
2019-05-23T02:44:17.478Z,7.50
2019-05-23T02:49:29.637Z,7.50
2019-05-23T02:54:37.436Z,7.50
2019-05-23T02:59:52.510Z,7.50
2019-05-23T03:04:58.917Z,7.40
2019-05-23T03:10:05.633Z,7.40
2019-05-23T03:15:12.912Z,7.40
2019-05-23T03:20:19.275Z,7.30
2019-05-23T03:25:38.901Z,7.20
2019-05-23T03:30:45.534Z,7.20
2019-05-23T03:36:03.737Z,7.20
2019-05-23T03:41:08.513Z,7.20
2019-05-23T03:46:14.463Z,7.20
2019-05-23T03:51:20.005Z,7.20
2019-05-23T03:56:24.874Z,7.20
2019-05-23T04:01:46.059Z,7.20
2019-05-23T04:06:35.894Z,7.30
2019-05-23T04:11:40.638Z,7.30
2019-05-23T04:16:44.987Z,7.40
2019-05-23T04:21:49.725Z,7.50
2019-05-23T04:26:54.190Z,7.50
2019-05-23T04:32:07.577Z,7.60
2019-05-23T04:37:04.852Z,7.70
2019-05-23T04:42:10.497Z,7.80
2019-05-23T04:47:14.953Z,7.90
2019-05-23T04:52:19.989Z,8.00
2019-05-23T04:57:24.659Z,8.20
2019-05-23T05:02:30.578Z,8.30
2019-05-23T05:07:35.406Z,8.50
2019-05-23T05:12:40.323Z,8.70
2019-05-23T05:17:46.119Z,9.00
2019-05-23T05:22:51.188Z,9.40
2019-05-23T05:27:55.915Z,9.70
2019-05-23T05:33:00.451Z,10.10
2019-05-23T05:38:05.291Z,10.60
2019-05-23T05:43:09.669Z,10.90
2019-05-23T05:48:14.427Z,11.40
2019-05-23T05:53:18.827Z,11.80
2019-05-23T05:58:23.157Z,12.20
2019-05-23T06:03:27.897Z,12.60
2019-05-23T06:08:34.092Z,13.10
2019-05-23T06:13:39.009Z,13.60
2019-05-23T06:18:43.986Z,14.20
2019-05-23T06:23:48.600Z,14.60
2019-05-23T06:28:53.056Z,14.90
2019-05-23T06:33:57.558Z,15.10
2019-05-23T06:39:02.177Z,15.50
2019-05-23T06:44:08.480Z,15.80
2019-05-23T06:49:12.962Z,16.10
2019-05-23T06:54:17.721Z,16.30
2019-05-23T06:59:23.034Z,16.50
2019-05-23T07:04:27.437Z,16.90
2019-05-23T07:09:32.091Z,17.20
2019-05-23T07:14:36.720Z,17.50
2019-05-23T07:19:41.484Z,17.80
2019-05-23T07:24:57.587Z,18.00
2019-05-23T07:29:52.136Z,18.20
2019-05-23T07:34:56.881Z,18.40
2019-05-23T07:40:01.199Z,18.60
2019-05-23T07:45:08.749Z,18.80
2019-05-23T07:50:14.176Z,19.10
2019-05-23T07:55:20.332Z,19.30
2019-05-23T08:00:29.844Z,19.60
2019-05-23T08:05:36.407Z,19.80
2019-05-23T08:10:40.769Z,20.10
2019-05-23T08:15:46.012Z,20.40
2019-05-23T08:20:50.408Z,20.60
2019-05-23T08:25:54.877Z,20.70
2019-05-23T08:30:59.899Z,20.80
2019-05-23T08:36:05.401Z,20.90
2019-05-23T08:41:09.954Z,20.90
2019-05-23T08:46:15.109Z,21.10
2019-05-23T08:51:19.943Z,21.10
2019-05-23T08:56:24.872Z,21.30
2019-05-23T09:01:29.296Z,21.40
2019-05-23T09:06:35.345Z,21.30
2019-05-23T09:11:40.203Z,21.50
2019-05-23T09:16:44.683Z,21.80
2019-05-23T09:21:49.001Z,21.90
2019-05-23T09:26:54.459Z,21.90
2019-05-23T09:31:59.228Z,22.10
2019-05-23T09:37:05.150Z,22.10
2019-05-23T09:42:12.046Z,22.10
2019-05-23T09:47:15.741Z,22.30
2019-05-23T09:52:21.573Z,22.70
2019-05-23T09:57:25.978Z,22.80
2019-05-23T10:02:30.433Z,22.80
2019-05-23T10:07:34.919Z,22.80
2019-05-23T10:12:39.254Z,22.70
2019-05-23T10:17:43.650Z,22.50
2019-05-23T10:22:48.030Z,22.60
2019-05-23T10:27:55.770Z,23.00
2019-05-23T10:32:58.617Z,23.50
2019-05-23T10:38:03.284Z,23.50
2019-05-23T10:43:07.958Z,23.20
2019-05-23T10:48:13.915Z,23.20
2019-05-23T10:53:18.402Z,23.40
2019-05-23T10:58:22.926Z,23.50
2019-05-23T11:03:27.545Z,23.70
2019-05-23T11:08:32.158Z,24.20
2019-05-23T11:13:36.563Z,24.50
2019-05-23T11:18:41.061Z,24.40
2019-05-23T11:23:50.569Z,24.60
2019-05-23T11:28:56.726Z,24.80
2019-05-23T11:34:01.357Z,25.00
2019-05-23T11:39:08.852Z,25.30
2019-05-23T11:44:13.252Z,25.60
2019-05-23T11:49:18.072Z,25.50
2019-05-23T11:54:23.695Z,25.80
2019-05-23T11:59:28.552Z,26.30
2019-05-23T12:04:34.642Z,26.80
2019-05-23T12:09:40.721Z,27.10
2019-05-23T12:14:45.127Z,27.60
2019-05-23T12:19:49.508Z,28.10
2019-05-23T12:24:53.978Z,28.30
2019-05-23T12:29:58.781Z,28.10
2019-05-23T12:35:11.055Z,27.60
2019-05-23T12:40:12.646Z,27.60
2019-05-23T12:45:17.752Z,27.60
2019-05-23T12:50:29.470Z,28.10
2019-05-23T12:55:34.833Z,28.00
2019-05-23T13:00:40.950Z,28.40
2019-05-23T13:05:45.827Z,28.30
2019-05-23T13:10:50.150Z,28.20
2019-05-23T13:15:54.538Z,27.90
2019-05-23T13:20:59.881Z,28.10
2019-05-23T13:26:04.979Z,27.80
2019-05-23T13:31:09.460Z,27.60
2019-05-23T13:36:13.916Z,28.20
2019-05-23T13:41:18.657Z,29.00
2019-05-23T13:46:23.365Z,29.50
2019-05-23T13:51:28.123Z,29.40
2019-05-23T13:56:32.519Z,29.00
2019-05-23T14:01:37.778Z,28.70
2019-05-23T14:06:42.161Z,28.30
2019-05-23T14:11:46.607Z,28.10
2019-05-23T14:17:08.750Z,28.20
2019-05-23T14:22:13.187Z,28.20
2019-05-23T14:27:22.124Z,28.10
2019-05-23T14:32:30.620Z,27.80
2019-05-23T14:37:48.403Z,27.90
2019-05-23T14:42:54.624Z,28.20
2019-05-23T14:48:04.070Z,27.80
2019-05-23T14:53:10.018Z,27.70
2019-05-23T14:58:15.074Z,28.20
2019-05-23T15:03:20.456Z,28.30
2019-05-23T15:08:25.498Z,27.90
2019-05-23T15:13:29.951Z,27.50
2019-05-23T15:18:34.399Z,27.60
2019-05-23T15:23:39.202Z,27.90
2019-05-23T15:28:43.509Z,28.80
2019-05-23T15:33:47.979Z,29.00
2019-05-23T15:39:08.184Z,29.80
2019-05-23T15:43:59.518Z,29.90
2019-05-23T15:49:04.109Z,30.50
2019-05-23T15:54:10.066Z,31.20
2019-05-23T15:59:25.122Z,31.40
2019-05-23T16:04:29.654Z,31.10
2019-05-23T16:09:34.498Z,31.30
2019-05-23T16:14:39.401Z,31.60
2019-05-23T16:19:44.028Z,32.00
2019-05-23T16:24:48.457Z,32.20
2019-05-23T16:29:53.007Z,32.20
2019-05-23T16:34:57.314Z,32.00
2019-05-23T16:40:01.702Z,31.60
2019-05-23T16:45:08.167Z,30.70
2019-05-23T16:50:13.383Z,29.60
2019-05-23T16:55:19.418Z,29.30
2019-05-23T17:00:42.241Z,29.20
2019-05-23T17:05:48.309Z,28.80
2019-05-23T17:10:54.260Z,27.60
2019-05-23T17:16:06.071Z,26.70
2019-05-23T17:21:17.881Z,26.00
2019-05-23T17:26:39.281Z,26.10
2019-05-23T17:31:45.233Z,26.30
2019-05-23T17:36:49.678Z,26.80
2019-05-23T17:41:54.834Z,27.10
2019-05-23T17:47:06.393Z,26.90
2019-05-23T17:52:10.842Z,26.50
2019-05-23T17:57:15.500Z,26.90
2019-05-23T18:02:20.265Z,27.00
2019-05-23T18:07:24.723Z,26.80
2019-05-23T18:12:29.287Z,26.70
2019-05-23T18:17:33.674Z,26.40
2019-05-23T18:22:38.691Z,26.50
2019-05-23T18:27:43.088Z,26.60
2019-05-23T18:32:48.456Z,26.70
2019-05-23T18:37:53.145Z,26.00
2019-05-23T18:42:57.524Z,25.30
2019-05-23T18:48:02.111Z,24.60
2019-05-23T18:53:06.573Z,23.90
2019-05-23T18:58:11.166Z,23.30
2019-05-23T19:03:18.863Z,22.60
2019-05-23T19:08:24.114Z,22.00
2019-05-23T19:13:28.917Z,21.20
2019-05-23T19:18:34.151Z,20.60
2019-05-23T19:23:39.471Z,20.10
2019-05-23T19:28:45.752Z,19.60
2019-05-23T19:33:50.220Z,19.10
2019-05-23T19:38:54.625Z,18.70
2019-05-23T19:43:59.010Z,18.30
2019-05-23T19:49:03.971Z,18.00
2019-05-23T19:54:08.533Z,17.70
2019-05-23T19:59:13.320Z,17.40
2019-05-23T20:04:19.361Z,17.20
2019-05-23T20:09:25.312Z,17.00
2019-05-23T20:14:29.694Z,16.70
2019-05-23T20:19:34.992Z,16.40
2019-05-23T20:24:40.231Z,16.20
2019-05-23T20:29:44.541Z,16.10
2019-05-23T20:34:49.157Z,16.00
2019-05-23T20:39:53.455Z,15.90
2019-05-23T20:44:58.670Z,15.70
2019-05-23T20:50:03.118Z,15.60
2019-05-23T20:55:07.762Z,15.50
2019-05-23T21:00:13.962Z,15.40
2019-05-23T21:05:18.439Z,15.40
2019-05-23T21:10:39.462Z,15.30
2019-05-23T21:15:50.123Z,15.30
2019-05-23T21:20:55.536Z,15.30
2019-05-23T21:26:03.994Z,15.20
2019-05-23T21:31:09.942Z,15.10
2019-05-23T21:36:14.324Z,15.10
2019-05-23T21:41:18.731Z,15.00
2019-05-23T21:46:23.187Z,15.00
2019-05-23T21:51:27.773Z,15.00
2019-05-23T21:56:32.084Z,15.10
2019-05-23T22:01:38.042Z,15.10
2019-05-23T22:06:44.271Z,15.10
2019-05-23T22:11:49.139Z,15.10
2019-05-23T22:16:53.533Z,15.10
2019-05-23T22:21:58.118Z,14.90
2019-05-23T22:27:10.524Z,14.80
2019-05-23T22:32:16.936Z,14.60
2019-05-23T22:37:23.512Z,14.50
2019-05-23T22:42:31.099Z,14.40
2019-05-23T22:47:36.718Z,14.20
2019-05-23T22:52:44.259Z,14.10
2019-05-23T23:04:13.978Z,13.90
2019-05-23T23:09:18.612Z,13.70
2019-05-23T23:14:23.008Z,13.60
2019-05-23T23:19:27.318Z,13.50
2019-05-23T23:24:31.819Z,13.40
2019-05-23T23:29:36.312Z,13.20
2019-05-23T23:34:42.551Z,13.10
2019-05-23T23:39:49.527Z,13.10
2019-05-23T23:44:53.294Z,13.10
2019-05-23T23:50:16.340Z,13.00
2019-05-23T23:55:42.413Z,13.00
